Ana Sayfa
METAR-TAF:

METAR-TAF

Havaalanları :

Cape Town, Güney Afrika

Enlem: 33-59S, Boylam: 018-36E, yükseklik: 42 m

Güncel hava durumu gözlemi

Rapor saat 12:00 UTC de 13 dakika önce yapıldı.
Rüzgar güney/güneybatıdan 11 kt, güney ve batı/güneybatı arasında değişken
Sıcaklık 28°C
Nem 37%
Basınç 1017 hPa
Görüş mesafesi 10 km veya daha fazla
1500 m altında bulut yok ve kümülonimbus yok

METAR: FACT 101200Z 21011KT 170V240 CAVOK 28/12 Q1017 NOSIG

Saat: 14:13 (12:13 UTC)

Tahmin

Rapor saat 10:00 UTC de 2 saat ve 13 dakika önce yapıldı.
Ayın 10'si saat 12 UTC'den ayın 11'si saat 18 UTC'ye kadar geçerli Tahmin
Rüzgar güney/güneybatıdan 10 kt
Görüş mesafesi 10 km veya daha fazla
1500 m altında bulut yok ve kümülonimbus yok

TAF: FACT 101000Z 1012/1118 20010KT CAVOK TX28/1012Z TN15/1104Z

4.000'den fazla havaalanı için hava durumu gözlemleri ve tahminleri (METAR ve TAF raporları).

Kullanılabilir istasyonlar harita üzerinde sarı ve kırmızı noktalarla gösterilir.

İstasyonun adını görmek için fareyi noktanın üzerinde gezdirin.

Sonrasında hava gözlem ve tahminlerini görmek için tıklayın.

Haritayı değiştirmek için: yaklaştırmak için siyah artı işaretli yeşil düğmeye ve uzaklaştırmak için de eksi işaretli düğmeye hızla tıklayın; bitişik haritalar için yeşil okları kullanın.


METAR-TAF: